Terminal Aerodrome Forecast
Issued by NWS Springfield, MO

Home | Current Version | Previous Version | Text Only | Print | Product List | Glossary On
Versions: 1 2 3 4 5 6 7 8 9 10 11 12 13 14 15 16 17 18 19 20 21 22 23 24 25 26 27
000
FTUS43 KSGF 212300
TAFSGF
TAF
KSGF 212320Z 2200/2224 14012KT P6SM OVC045
     FM220300 15012KT 6SM -DZ BR SCT015 OVC030
     FM221200 16012KT 2SM BR VCSH OVC012
     FM221400 16015KT 1SM BR VCSH OVC008=

USA.gov is the U.S. government's official web portal to all federal, state and local government web resources and services.